Anawalt, West Virginia
Current Conditions -  °F | °C
As of 12:20 AM on Tuesday 23 Dec 2014 (Local Time) from KBLF Reporting Station
Haze Haze  
Wind Chill: 29°   Ceiling: 200
Heat Index: 37°   Visibility: 0.75mi
Dew Point: 34°   Wind: 12mph
Humidity: 89%   Direction: 130°SE
Pressure: 29.92"   Gusts: 23mph
Location:  37.34°N, 81.44°W
Report Text: KBLF 230520Z AUTO 13010G20KT 3/4SM BR VV002 03/01 A2992 RMK AO2 T00280011
Loading
Personal Weather Stations






























Interactive Weather Map New forecast layout! Learn more

10-Day Weather Forecast

Advertisements
Track Severe Weather on mobile